Time;durP1;ratioP1;P1;durP2;ratioP2;P2;SDS_P1;SDS_P2;PMS_P1;PMS_P2;Temp;Humidity;BMP_temperature;BMP_pressure;BME280_temperature;BME280_humidity;BME280_pressure;Samples;Min_cycle;Max_cycle;Signal;HPM_P1;HPM_P2
2023/05/27 00:00:26;;;;;;;;;;;11.00;68.60;;;;;;5094865;28;19915;-27
2023/05/27 00:02:51;;;;;;;;;;;11.00;68.80;;;;;;5094738;28;19915;-27
2023/05/27 00:05:17;;;;;;;;;;;11.00;69.10;;;;;;5094753;28;19934;-27
2023/05/27 00:07:42;;;;;;;;;;;10.90;69.00;;;;;;5094667;28;20431;-28
2023/05/27 00:10:08;;;;;;;;;;;10.90;69.20;;;;;;5094541;28;19962;-26
2023/05/27 00:12:33;;;;;;;;;;;10.90;69.40;;;;;;5094782;28;20330;-26
2023/05/27 00:14:59;;;;;;;;;;;10.80;69.30;;;;;;5094545;28;19908;-27
2023/05/27 00:17:25;;;;;;;;;;;10.80;69.20;;;;;;5094704;28;19908;-30
2023/05/27 00:19:51;;;;;;;;;;;10.80;69.20;;;;;;5093971;28;20299;-29
2023/05/27 00:22:17;;;;;;;;;;;10.80;69.40;;;;;;5076292;28;20366;-29
2023/05/27 00:24:42;;;;;;;;;;;10.80;69.40;;;;;;5094185;28;20013;-28
2023/05/27 00:27:08;;;;;;;;;;;10.80;69.50;;;;;;5094193;28;20331;-27
2023/05/27 00:29:34;;;;;;;;;;;10.80;69.50;;;;;;5094554;28;20356;-26
2023/05/27 00:32:00;;;;;;;;;;;10.80;69.70;;;;;;5094195;28;19916;-26
2023/05/27 00:34:25;;;;;;;;;;;10.70;69.70;;;;;;5094396;28;19908;-25
2023/05/27 00:36:51;;;;;;;;;;;10.70;69.80;;;;;;5094044;28;19934;-26
2023/05/27 00:39:16;;;;;;;;;;;10.70;69.80;;;;;;5094191;28;19909;-36
2023/05/27 00:41:47;;;;;;;;;;;10.70;70.00;;;;;;5094274;28;19962;-26
2023/05/27 00:44:13;;;;;;;;;;;10.60;70.00;;;;;;5094120;28;19912;-31
2023/05/27 00:46:38;;;;;;;;;;;10.60;70.50;;;;;;5094020;28;19908;-27
2023/05/27 00:49:03;;;;;;;;;;;10.60;70.10;;;;;;5093780;28;19951;-25
2023/05/27 00:51:29;;;;;;;;;;;10.60;70.50;;;;;;5093948;28;19908;-27
2023/05/27 00:53:55;;;;;;;;;;;10.50;70.50;;;;;;5094049;28;19908;-26
2023/05/27 00:56:21;;;;;;;;;;;10.50;70.70;;;;;;5093683;28;20482;-28
2023/05/27 00:58:46;;;;;;;;;;;10.50;70.80;;;;;;5094066;28;19908;-26
2023/05/27 01:01:12;;;;;;;;;;;10.40;71.30;;;;;;5093524;28;19915;-26
2023/05/27 01:03:38;;;;;;;;;;;10.40;71.10;;;;;;5094068;28;20025;-26
2023/05/27 01:06:23;;;;;;;;;;;10.40;71.00;;;;;;5093538;28;19909;-25
2023/05/27 01:08:59;;;;;;;;;;;10.30;71.10;;;;;;5093475;28;20212;-27
2023/05/27 01:11:27;;;;;;;;;;;10.30;71.10;;;;;;5093519;28;19908;-26
2023/05/27 01:13:56;;;;;;;;;;;10.30;71.00;;;;;;5093740;28;19915;-27
2023/05/27 01:16:24;;;;;;;;;;;10.30;71.20;;;;;;5093720;28;20609;-26
2023/05/27 01:18:52;;;;;;;;;;;10.30;71.20;;;;;;5093313;28;19908;-29
2023/05/27 01:21:18;;;;;;;;;;;10.30;71.80;;;;;;5075240;28;20011;-27
2023/05/27 01:23:46;;;;;;;;;;;10.20;71.50;;;;;;5093300;28;19931;-26
2023/05/27 01:26:12;;;;;;;;;;;10.20;71.40;;;;;;5093183;28;19908;-30
2023/05/27 01:28:38;;;;;;;;;;;10.20;71.50;;;;;;5093120;28;19919;-25
2023/05/27 01:31:15;;;;;;;;;;;10.20;71.40;;;;;;5092015;28;20286;-27
2023/05/27 01:33:42;;;;;;;;;;;10.20;71.40;;;;;;5093436;28;19916;-28
2023/05/27 01:36:12;;;;;;;;;;;10.20;71.50;;;;;;5093079;28;19908;-27
2023/05/27 01:38:40;;;;;;;;;;;10.20;71.40;;;;;;5093015;28;19908;-28
2023/05/27 01:41:06;;;;;;;;;;;10.20;71.60;;;;;;5092971;28;19908;-25
2023/05/27 01:43:32;;;;;;;;;;;10.20;71.80;;;;;;5092853;28;19938;-27
2023/05/27 01:45:57;;;;;;;;;;;10.20;72.00;;;;;;5092859;28;19908;-26
2023/05/27 01:48:23;;;;;;;;;;;10.20;71.90;;;;;;5074473;28;19911;-32
2023/05/27 01:50:48;;;;;;;;;;;10.20;71.90;;;;;;5093006;28;19908;-27
2023/05/27 01:53:14;;;;;;;;;;;10.10;72.00;;;;;;5092759;28;19915;-25
2023/05/27 01:55:39;;;;;;;;;;;10.10;71.90;;;;;;5092694;28;20381;-30
2023/05/27 01:58:05;;;;;;;;;;;10.10;71.80;;;;;;5092665;28;20305;-26
2023/05/27 02:00:30;;;;;;;;;;;10.20;71.80;;;;;;5092546;28;19947;-29
2023/05/27 02:02:56;;;;;;;;;;;10.20;71.80;;;;;;5092859;28;19908;-26
2023/05/27 02:05:21;;;;;;;;;;;10.20;71.80;;;;;;5092741;28;19912;-25
2023/05/27 02:07:46;;;;;;;;;;;10.20;71.80;;;;;;5092506;28;19912;-28
2023/05/27 02:10:12;;;;;;;;;;;10.20;71.80;;;;;;5092320;28;20374;-26
2023/05/27 02:12:37;;;;;;;;;;;10.20;72.00;;;;;;5092876;28;19909;-27
2023/05/27 02:15:03;;;;;;;;;;;10.20;72.10;;;;;;5092322;28;19908;-26
2023/05/27 02:17:29;;;;;;;;;;;10.10;72.10;;;;;;5092704;28;19994;-25
2023/05/27 02:19:55;;;;;;;;;;;10.10;72.10;;;;;;5092766;28;19908;-26
2023/05/27 02:22:21;;;;;;;;;;;10.10;72.20;;;;;;5092741;28;20003;-28
2023/05/27 02:24:46;;;;;;;;;;;10.10;72.20;;;;;;5092735;28;19920;-26
2023/05/27 02:27:12;;;;;;;;;;;10.00;72.30;;;;;;5092061;28;19958;-29
2023/05/27 02:29:37;;;;;;;;;;;10.00;72.30;;;;;;5092683;28;20288;-27
2023/05/27 02:32:03;;;;;;;;;;;10.00;72.40;;;;;;5092395;28;19974;-27
2023/05/27 02:34:28;;;;;;;;;;;9.90;72.50;;;;;;5092167;28;20344;-28
2023/05/27 02:36:54;;;;;;;;;;;9.90;72.70;;;;;;5092076;28;19908;-26
2023/05/27 02:39:19;;;;;;;;;;;9.90;72.80;;;;;;5092408;28;19919;-26
2023/05/27 02:41:45;;;;;;;;;;;9.80;72.70;;;;;;5091688;28;20287;-27
2023/05/27 02:44:11;;;;;;;;;;;9.80;72.90;;;;;;5092100;28;19960;-27
2023/05/27 02:46:36;;;;;;;;;;;9.80;72.90;;;;;;5092039;28;19908;-25
2023/05/27 02:49:02;;;;;;;;;;;9.80;72.90;;;;;;5092187;28;19912;-28
2023/05/27 02:51:28;;;;;;;;;;;9.80;73.00;;;;;;5092266;28;19908;-32
2023/05/27 02:53:53;;;;;;;;;;;9.70;73.00;;;;;;5092006;28;19908;-27
2023/05/27 02:56:19;;;;;;;;;;;9.70;73.00;;;;;;5073795;28;19908;-29
2023/05/27 02:58:45;;;;;;;;;;;9.70;73.10;;;;;;5092212;28;19909;-26
2023/05/27 03:01:10;;;;;;;;;;;9.70;73.30;;;;;;5091922;28;20288;-27
2023/05/27 03:03:36;;;;;;;;;;;9.70;73.30;;;;;;5092039;28;19916;-44
2023/05/27 03:06:01;;;;;;;;;;;9.60;73.40;;;;;;5092172;28;19912;-26
2023/05/27 03:08:27;;;;;;;;;;;9.60;73.40;;;;;;5074085;28;19912;-29
2023/05/27 03:10:52;;;;;;;;;;;9.60;73.40;;;;;;5092031;28;20378;-30
2023/05/27 03:13:18;;;;;;;;;;;9.60;73.40;;;;;;5092282;28;20347;-35
2023/05/27 03:15:43;;;;;;;;;;;9.60;73.40;;;;;;5091850;28;19973;-27
2023/05/27 03:18:09;;;;;;;;;;;9.60;73.40;;;;;;5091768;28;19915;-26
2023/05/27 03:20:34;;;;;;;;;;;9.60;73.50;;;;;;5091802;28;19946;-27
2023/05/27 03:23:00;;;;;;;;;;;9.60;73.50;;;;;;5091497;28;19915;-26
2023/05/27 03:25:25;;;;;;;;;;;9.60;73.60;;;;;;5091522;28;19912;-28
2023/05/27 03:27:52;;;;;;;;;;;9.50;73.50;;;;;;5091628;28;19916;-31
2023/05/27 03:30:18;;;;;;;;;;;9.60;73.50;;;;;;5091651;28;19929;-29
2023/05/27 03:32:43;;;;;;;;;;;9.50;73.50;;;;;;5091852;28;19987;-32
2023/05/27 03:35:09;;;;;;;;;;;9.60;73.50;;;;;;5091682;28;19908;-27
2023/05/27 03:37:34;;;;;;;;;;;9.60;73.50;;;;;;5091605;28;19912;-30
2023/05/27 03:40:00;;;;;;;;;;;9.60;73.50;;;;;;5091703;28;20034;-28
2023/05/27 03:42:25;;;;;;;;;;;9.60;73.70;;;;;;5091629;28;19908;-26
2023/05/27 03:44:51;;;;;;;;;;;9.60;73.70;;;;;;5091480;28;19920;-29
2023/05/27 03:47:21;;;;;;;;;;;9.60;73.60;;;;;;5091531;28;19908;-28
2023/05/27 03:49:47;;;;;;;;;;;9.60;73.70;;;;;;5091488;28;19912;-26
2023/05/27 03:52:12;;;;;;;;;;;9.60;73.70;;;;;;5091371;28;19912;-28
2023/05/27 03:54:38;;;;;;;;;;;9.60;73.70;;;;;;5093996;28;19958;-30
2023/05/27 03:57:03;;;;;;;;;;;9.60;73.80;;;;;;5094952;28;20344;-29
2023/05/27 03:59:29;;;;;;;;;;;9.60;73.80;;;;;;5095066;28;19931;-31
2023/05/27 04:01:54;;;;;;;;;;;9.60;74.10;;;;;;5094903;28;19912;-26
2023/05/27 04:04:20;;;;;;;;;;;9.60;74.10;;;;;;5094878;28;20427;-31
2023/05/27 04:06:45;;;;;;;;;;;9.60;74.00;;;;;;5094787;28;19915;-32
2023/05/27 04:09:11;;;;;;;;;;;9.60;74.10;;;;;;5094721;28;20054;-27
2023/05/27 04:11:36;;;;;;;;;;;9.60;74.10;;;;;;5094732;28;20356;-27
2023/05/27 04:14:02;;;;;;;;;;;9.60;74.10;;;;;;5094892;28;20057;-30
2023/05/27 04:16:30;;;;;;;;;;;9.70;74.60;;;;;;5094983;28;19923;-25
2023/05/27 04:18:56;;;;;;;;;;;9.70;74.00;;;;;;5094927;28;20427;-30
2023/05/27 04:21:22;;;;;;;;;;;9.70;74.00;;;;;;5094694;28;19944;-27
2023/05/27 04:23:48;;;;;;;;;;;9.70;74.10;;;;;;5094256;28;20292;-27
2023/05/27 04:26:14;;;;;;;;;;;9.70;74.20;;;;;;5094620;28;20230;-26
2023/05/27 04:28:40;;;;;;;;;;;9.70;74.10;;;;;;5094644;28;20385;-29
2023/05/27 04:31:12;;;;;;;;;;;9.70;74.20;;;;;;5094278;28;19958;-27
2023/05/27 04:33:40;;;;;;;;;;;9.70;74.10;;;;;;5094360;28;20002;-27
2023/05/27 04:36:06;;;;;;;;;;;9.80;74.20;;;;;;5094123;28;20390;-27
2023/05/27 04:38:32;;;;;;;;;;;9.80;74.10;;;;;;5094286;28;19916;-29
2023/05/27 04:40:58;;;;;;;;;;;9.80;74.10;;;;;;5094115;28;19916;-27
2023/05/27 04:43:26;;;;;;;;;;;9.90;74.10;;;;;;5094018;28;20283;-27
2023/05/27 04:45:51;;;;;;;;;;;9.80;74.00;;;;;;5094048;28;19943;-28
2023/05/27 04:48:17;;;;;;;;;;;9.90;73.90;;;;;;5093871;28;19912;-32
2023/05/27 04:50:42;;;;;;;;;;;10.00;74.00;;;;;;5093993;28;19908;-27
2023/05/27 04:53:08;;;;;;;;;;;10.00;73.90;;;;;;5094523;28;20471;-27
2023/05/27 04:55:33;;;;;;;;;;;10.00;73.90;;;;;;5093755;28;19915;-27
2023/05/27 04:58:02;;;;;;;;;;;10.00;73.90;;;;;;5093850;28;20036;-29
2023/05/27 05:00:49;;;;;;;;;;;10.10;74.00;;;;;;5093817;28;20003;-29
2023/05/27 05:03:21;;;;;;;;;;;10.10;73.90;;;;;;5075503;28;19918;-26
2023/05/27 05:05:53;;;;;;;;;;;10.10;73.90;;;;;;5093423;28;20482;-26
2023/05/27 05:08:19;;;;;;;;;;;10.20;74.00;;;;;;5093611;28;20291;-27
2023/05/27 05:10:48;;;;;;;;;;;10.20;74.00;;;;;;5093520;28;19908;-29
2023/05/27 05:13:14;;;;;;;;;;;10.20;74.00;;;;;;5093822;28;20379;-27
2023/05/27 05:15:40;;;;;;;;;;;10.30;74.60;;;;;;5093660;28;20269;-28
2023/05/27 05:18:05;;;;;;;;;;;10.30;74.20;;;;;;5093424;28;19915;-27
2023/05/27 05:20:31;;;;;;;;;;;10.30;74.70;;;;;;5093505;28;19912;-27
2023/05/27 05:22:57;;;;;;;;;;;10.30;74.40;;;;;;5093214;28;20379;-31
2023/05/27 05:25:23;;;;;;;;;;;10.40;74.40;;;;;;5093305;28;19912;-28
2023/05/27 05:27:48;;;;;;;;;;;10.40;74.40;;;;;;5093595;28;19957;-28
2023/05/27 05:30:14;;;;;;;;;;;10.50;74.30;;;;;;5093095;28;19908;-27
2023/05/27 05:32:39;;;;;;;;;;;10.60;74.60;;;;;;5093273;28;19914;-29
2023/05/27 05:35:05;;;;;;;;;;;10.60;74.40;;;;;;5074831;28;20014;-27
2023/05/27 05:37:31;;;;;;;;;;;10.60;74.70;;;;;;5093259;28;20401;-28
2023/05/27 05:39:56;;;;;;;;;;;10.60;74.50;;;;;;5093011;28;19995;-27
2023/05/27 05:42:24;;;;;;;;;;;10.70;74.30;;;;;;5092941;28;20493;-31
2023/05/27 05:44:50;;;;;;;;;;;10.70;74.60;;;;;;5092950;28;19957;-29
2023/05/27 05:47:16;;;;;;;;;;;10.80;74.30;;;;;;5092837;28;19913;-30
2023/05/27 05:49:41;;;;;;;;;;;10.80;74.30;;;;;;5092953;28;20486;-31
2023/05/27 05:52:07;;;;;;;;;;;10.90;74.50;;;;;;5093149;28;20026;-27
2023/05/27 05:54:32;;;;;;;;;;;10.90;74.30;;;;;;5074611;28;19987;-28
2023/05/27 05:56:58;;;;;;;;;;;10.90;74.30;;;;;;5092659;28;19912;-30
2023/05/27 05:59:23;;;;;;;;;;;11.00;74.30;;;;;;5092767;28;19919;-28
2023/05/27 06:01:49;;;;;;;;;;;11.10;74.60;;;;;;5092690;28;19916;-31
2023/05/27 06:04:15;;;;;;;;;;;11.10;74.70;;;;;;5092663;28;19958;-38
2023/05/27 06:06:40;;;;;;;;;;;11.10;74.70;;;;;;5092568;28;19908;-27
2023/05/27 06:09:06;;;;;;;;;;;11.20;74.50;;;;;;5074285;28;19912;-27
2023/05/27 06:11:31;;;;;;;;;;;11.30;74.40;;;;;;5092632;28;20015;-27
2023/05/27 06:13:57;;;;;;;;;;;11.30;74.30;;;;;;5092511;28;19970;-27
2023/05/27 06:16:22;;;;;;;;;;;11.40;74.10;;;;;;5091876;28;19913;-33
2023/05/27 06:18:48;;;;;;;;;;;11.50;74.00;;;;;;5092565;28;19908;-30
2023/05/27 06:21:13;;;;;;;;;;;11.50;73.80;;;;;;5092333;28;20011;-28
2023/05/27 06:23:39;;;;;;;;;;;11.60;73.60;;;;;;5092353;28;20003;-32
2023/05/27 06:26:04;;;;;;;;;;;11.70;73.60;;;;;;5092206;28;19942;-27
2023/05/27 06:28:30;;;;;;;;;;;11.70;73.40;;;;;;5092143;28;19912;-35
2023/05/27 06:30:55;;;;;;;;;;;11.80;73.40;;;;;;5092326;28;20272;-32
2023/05/27 06:33:21;;;;;;;;;;;11.80;73.20;;;;;;5092084;28;19915;-35
2023/05/27 06:35:46;;;;;;;;;;;12.00;73.10;;;;;;5092461;28;19939;-28
2023/05/27 06:38:12;;;;;;;;;;;12.00;73.00;;;;;;5092119;28;19908;-29
2023/05/27 06:40:37;;;;;;;;;;;12.10;72.80;;;;;;5074207;28;19908;-34
2023/05/27 06:43:03;;;;;;;;;;;12.20;72.70;;;;;;5092152;28;20380;-43
2023/05/27 06:45:28;;;;;;;;;;;12.30;72.50;;;;;;5092059;28;19908;-39
2023/05/27 06:47:54;;;;;;;;;;;12.30;72.40;;;;;;5092019;28;20020;-31
2023/05/27 06:50:20;;;;;;;;;;;12.40;72.20;;;;;;5092376;28;20321;-33
2023/05/27 06:52:45;;;;;;;;;;;12.50;72.10;;;;;;5091980;28;19912;-33
2023/05/27 06:55:11;;;;;;;;;;;12.60;72.20;;;;;;5092070;28;20395;-32
2023/05/27 06:57:36;;;;;;;;;;;12.60;71.90;;;;;;5092049;28;19963;-28
2023/05/27 07:00:05;;;;;;;;;;;12.60;71.80;;;;;;5092137;28;19958;-28
2023/05/27 07:02:30;;;;;;;;;;;12.70;71.80;;;;;;5091891;28;19908;-32
2023/05/27 07:04:56;;;;;;;;;;;12.80;71.90;;;;;;5073810;28;19938;-31
2023/05/27 07:07:21;;;;;;;;;;;12.90;71.80;;;;;;5092036;28;19915;-31
2023/05/27 07:09:47;;;;;;;;;;;12.90;72.00;;;;;;5091833;28;20348;-33
2023/05/27 07:12:12;;;;;;;;;;;12.90;71.60;;;;;;5074031;28;19908;-32
2023/05/27 07:14:38;;;;;;;;;;;13.00;71.50;;;;;;5091998;28;20391;-30
2023/05/27 07:17:03;;;;;;;;;;;13.10;71.40;;;;;;5091893;28;19989;-33
2023/05/27 07:19:28;;;;;;;;;;;13.20;71.40;;;;;;5091806;28;19915;-34
2023/05/27 07:21:54;;;;;;;;;;;13.20;71.20;;;;;;5091722;28;19997;-38
2023/05/27 07:24:19;;;;;;;;;;;13.30;71.00;;;;;;5091715;28;19923;-35
2023/05/27 07:26:45;;;;;;;;;;;13.40;70.90;;;;;;5091787;28;19916;-36
2023/05/27 07:29:11;;;;;;;;;;;13.50;70.80;;;;;;5095318;28;19920;-35
2023/05/27 07:31:36;;;;;;;;;;;13.60;70.70;;;;;;5095487;28;19914;-38
2023/05/27 07:34:01;;;;;;;;;;;13.60;70.50;;;;;;5095553;28;19908;-32
2023/05/27 07:36:27;;;;;;;;;;;13.70;70.50;;;;;;5077325;28;19958;-39
2023/05/27 07:38:53;;;;;;;;;;;13.80;70.40;;;;;;5095446;28;20342;-39
2023/05/27 07:41:18;;;;;;;;;;;13.80;70.20;;;;;;5095342;28;19947;-28
2023/05/27 07:43:44;;;;;;;;;;;13.90;70.20;;;;;;5077130;28;19915;-29
2023/05/27 07:46:09;;;;;;;;;;;14.00;70.00;;;;;;5095324;28;19912;-28
2023/05/27 07:48:35;;;;;;;;;;;14.10;70.00;;;;;;5095274;28;19919;-31
2023/05/27 07:51:00;;;;;;;;;;;14.20;69.80;;;;;;5095164;28;19916;-40
2023/05/27 07:53:26;;;;;;;;;;;14.20;69.60;;;;;;5095055;28;19908;-34
2023/05/27 07:55:51;;;;;;;;;;;14.30;69.50;;;;;;5095196;28;20006;-36
2023/05/27 07:58:17;;;;;;;;;;;14.40;69.30;;;;;;5094974;28;19916;-35
2023/05/27 08:00:42;;;;;;;;;;;14.50;69.20;;;;;;5095097;28;19914;-36
2023/05/27 08:03:08;;;;;;;;;;;14.60;69.10;;;;;;5095026;28;19953;-27
2023/05/27 08:05:33;;;;;;;;;;;14.60;68.90;;;;;;5094988;28;19908;-36
2023/05/27 08:07:59;;;;;;;;;;;14.70;68.80;;;;;;5094960;28;19912;-34
2023/05/27 08:10:25;;;;;;;;;;;14.80;68.60;;;;;;5094776;28;19987;-31
2023/05/27 08:12:51;;;;;;;;;;;14.90;68.60;;;;;;5094985;28;19935;-46
2023/05/27 08:15:16;;;;;;;;;;;14.90;68.40;;;;;;5094791;28;19958;-31
2023/05/27 08:17:43;;;;;;;;;;;15.00;68.30;;;;;;5094868;28;19950;-34
2023/05/27 08:20:09;;;;;;;;;;;15.10;68.30;;;;;;5095092;28;19908;-29
2023/05/27 08:22:35;;;;;;;;;;;15.20;68.10;;;;;;5076529;28;20439;-32
2023/05/27 08:25:00;;;;;;;;;;;15.30;68.00;;;;;;5072891;28;19943;-29
2023/05/27 08:27:44;;;;;;;;;;;15.30;67.90;;;;;;5074285;28;20323;-31
2023/05/27 08:30:13;;;;;;;;;;;15.30;67.80;;;;;;5074271;28;20315;-32
2023/05/27 08:32:38;;;;;;;;;;;15.40;67.80;;;;;;5074252;28;19915;-28
2023/05/27 08:35:04;;;;;;;;;;;15.50;67.70;;;;;;5074151;28;20007;-27
2023/05/27 08:37:30;;;;;;;;;;;15.60;67.60;;;;;;5074363;28;20376;-28
2023/05/27 08:39:57;;;;;;;;;;;15.60;67.50;;;;;;5073560;28;19909;-28
2023/05/27 08:42:23;;;;;;;;;;;15.70;67.40;;;;;;5074077;28;20406;-32
2023/05/27 08:44:49;;;;;;;;;;;15.70;67.10;;;;;;5074011;28;19908;-28
2023/05/27 08:47:15;;;;;;;;;;;15.70;67.10;;;;;;5073993;28;20326;-30
2023/05/27 08:49:41;;;;;;;;;;;15.80;67.10;;;;;;5073921;28;19912;-27
2023/05/27 08:52:08;;;;;;;;;;;15.80;66.90;;;;;;5073794;28;19916;-32
2023/05/27 08:54:35;;;;;;;;;;;15.90;66.90;;;;;;5073858;28;19931;-26
2023/05/27 08:57:03;;;;;;;;;;;15.90;66.80;;;;;;5073779;28;19998;-27
2023/05/27 08:59:29;;;;;;;;;;;16.00;66.50;;;;;;5073726;28;20280;-28
2023/05/27 09:01:56;;;;;;;;;;;16.10;66.40;;;;;;5072225;28;19909;-31
2023/05/27 09:04:21;;;;;;;;;;;16.20;66.40;;;;;;5073666;28;20019;-35
2023/05/27 09:06:47;;;;;;;;;;;16.30;66.30;;;;;;5073635;28;19988;-28
2023/05/27 09:09:12;;;;;;;;;;;16.30;66.10;;;;;;5073192;28;19935;-35
2023/05/27 09:11:39;;;;;;;;;;;16.40;65.90;;;;;;5073425;28;19919;-31
2023/05/27 09:14:04;;;;;;;;;;;16.50;65.80;;;;;;5073146;28;19908;-29
2023/05/27 09:16:30;;;;;;;;;;;16.60;65.70;;;;;;5073360;28;20300;-27
2023/05/27 09:18:55;;;;;;;;;;;16.60;65.50;;;;;;5073124;28;19909;-27
2023/05/27 09:21:23;;;;;;;;;;;16.70;65.40;;;;;;5073104;28;19909;-32
2023/05/27 09:23:49;;;;;;;;;;;16.80;65.30;;;;;;5082196;28;19920;-30
2023/05/27 09:26:14;;;;;;;;;;;16.90;65.10;;;;;;5093354;28;19915;-34
2023/05/27 09:28:40;;;;;;;;;;;17.00;65.00;;;;;;5093430;28;19918;-32
2023/05/27 09:31:07;;;;;;;;;;;17.10;64.80;;;;;;5093161;28;20011;-27
2023/05/27 09:33:33;;;;;;;;;;;17.20;64.60;;;;;;5093487;28;20003;-27
2023/05/27 09:35:59;;;;;;;;;;;17.30;64.60;;;;;;5093103;28;19991;-27
2023/05/27 09:38:27;;;;;;;;;;;17.30;64.20;;;;;;5093095;28;19947;-27
2023/05/27 09:40:53;;;;;;;;;;;17.30;63.90;;;;;;5093275;28;19908;-27
2023/05/27 09:43:19;;;;;;;;;;;17.40;64.00;;;;;;5093265;28;19958;-30
2023/05/27 09:45:44;;;;;;;;;;;17.30;64.10;;;;;;5092973;28;19999;-26
2023/05/27 09:48:11;;;;;;;;;;;17.40;64.00;;;;;;5092784;28;19912;-26
2023/05/27 09:50:37;;;;;;;;;;;17.50;64.00;;;;;;5092376;28;19908;-30
2023/05/27 09:53:04;;;;;;;;;;;17.50;63.80;;;;;;5092456;28;19976;-27
2023/05/27 09:55:30;;;;;;;;;;;17.60;63.80;;;;;;5092755;28;19908;-26
2023/05/27 09:57:55;;;;;;;;;;;17.60;63.60;;;;;;5074468;28;19916;-29
2023/05/27 10:00:21;;;;;;;;;;;17.70;63.40;;;;;;5092752;28;19915;-31
2023/05/27 10:02:47;;;;;;;;;;;17.70;63.20;;;;;;5092652;28;20070;-28
2023/05/27 10:05:13;;;;;;;;;;;17.80;63.20;;;;;;5092769;28;19931;-29
2023/05/27 10:07:40;;;;;;;;;;;17.90;63.10;;;;;;5092518;28;19947;-34
2023/05/27 10:10:09;;;;;;;;;;;18.00;62.90;;;;;;5092418;28;19934;-37
2023/05/27 10:12:39;;;;;;;;;;;18.10;62.00;;;;;;5092583;28;20322;-31
2023/05/27 10:15:05;;;;;;;;;;;18.20;62.50;;;;;;5092519;28;19915;-31
2023/05/27 10:17:41;;;;;;;;;;;18.20;62.30;;;;;;5092612;28;20180;-30
2023/05/27 10:20:07;;;;;;;;;;;18.30;62.30;;;;;;5092487;28;19908;-30
2023/05/27 10:22:42;;;;;;;;;;;18.40;62.20;;;;;;5092619;28;19934;-30
2023/05/27 10:25:14;;;;;;;;;;;18.40;61.80;;;;;;5052264;28;19967;-28
2023/05/27 10:27:46;;;;;;;;;;;18.50;61.80;;;;;;5050865;28;20008;-30
2023/05/27 10:30:13;;;;;;;;;;;18.60;61.60;;;;;;5052191;28;19919;-44
2023/05/27 10:32:48;;;;;;;;;;;18.70;61.60;;;;;;5052349;28;19916;-33
2023/05/27 10:35:14;;;;;;;;;;;18.70;61.10;;;;;;5052082;28;19915;-32
2023/05/27 10:37:41;;;;;;;;;;;18.80;61.10;;;;;;5052186;28;19915;-33
2023/05/27 10:40:07;;;;;;;;;;;18.90;60.80;;;;;;5052143;28;19916;-35
2023/05/27 10:42:33;;;;;;;;;;;19.00;60.60;;;;;;5052256;28;19909;-30
2023/05/27 10:45:05;;;;;;;;;;;19.00;60.40;;;;;;5051999;28;20283;-41
2023/05/27 10:47:34;;;;;;;;;;;19.10;60.20;;;;;;5052300;28;20011;-35
2023/05/27 10:50:08;;;;;;;;;;;19.10;60.20;;;;;;5052269;28;20346;-31
2023/05/27 10:52:36;;;;;;;;;;;19.20;60.00;;;;;;5052004;28;19947;-38
2023/05/27 10:55:03;;;;;;;;;;;19.30;60.00;;;;;;5051894;28;19913;-42
2023/05/27 10:57:30;;;;;;;;;;;19.30;59.70;;;;;;5051885;28;19915;-40
2023/05/27 10:59:57;;;;;;;;;;;19.30;59.60;;;;;;5051753;28;19962;-32
2023/05/27 11:02:23;;;;;;;;;;;19.40;58.80;;;;;;5052537;28;19934;-36
2023/05/27 11:04:49;;;;;;;;;;;19.40;59.00;;;;;;5056159;28;19915;-34
2023/05/27 11:07:18;;;;;;;;;;;19.40;59.00;;;;;;5054585;28;19909;-35
2023/05/27 11:10:02;;;;;;;;;;;19.40;59.00;;;;;;5055767;28;19913;-42
2023/05/27 11:12:27;;;;;;;;;;;19.50;59.10;;;;;;5055598;28;19909;-36
2023/05/27 11:14:53;;;;;;;;;;;19.60;58.90;;;;;;5055576;28;19935;-33
2023/05/27 11:17:20;;;;;;;;;;;19.70;58.80;;;;;;5055728;28;19909;-35
2023/05/27 11:19:46;;;;;;;;;;;19.80;58.60;;;;;;5055403;28;19909;-39
2023/05/27 11:22:12;;;;;;;;;;;19.80;58.50;;;;;;5055330;28;20015;-33
2023/05/27 11:24:37;;;;;;;;;;;19.90;58.30;;;;;;5087197;28;19926;-28
2023/05/27 11:27:10;;;;;;;;;;;20.00;58.10;;;;;;5095773;28;19908;-41
2023/05/27 11:29:36;;;;;;;;;;;20.10;58.20;;;;;;5095545;28;19913;-32
2023/05/27 11:32:02;;;;;;;;;;;20.20;57.90;;;;;;5095722;28;19918;-38
2023/05/27 11:34:27;;;;;;;;;;;20.20;57.50;;;;;;5095362;28;20334;-31
2023/05/27 11:36:53;;;;;;;;;;;20.20;57.10;;;;;;5095314;28;19940;-34
2023/05/27 11:39:19;;;;;;;;;;;20.40;57.00;;;;;;5094520;28;20368;-36
2023/05/27 11:41:52;;;;;;;;;;;20.50;57.00;;;;;;5095027;28;19965;-38
2023/05/27 11:44:18;;;;;;;;;;;20.50;56.60;;;;;;5095359;28;19920;-28
2023/05/27 11:46:44;;;;;;;;;;;20.70;56.60;;;;;;5095271;28;19908;-37
2023/05/27 11:49:10;;;;;;;;;;;20.80;56.20;;;;;;5095424;28;19919;-37
2023/05/27 11:51:36;;;;;;;;;;;20.80;56.20;;;;;;5095527;28;19908;-41
2023/05/27 11:54:02;;;;;;;;;;;20.90;56.20;;;;;;5095122;28;19912;-30
2023/05/27 11:56:28;;;;;;;;;;;21.00;55.90;;;;;;5095157;28;19968;-28
2023/05/27 11:58:54;;;;;;;;;;;21.10;55.60;;;;;;5095135;28;19915;-30
2023/05/27 12:01:20;;;;;;;;;;;21.10;55.50;;;;;;5095143;28;19912;-28
2023/05/27 12:03:45;;;;;;;;;;;21.20;55.50;;;;;;5095015;28;19915;-27
2023/05/27 12:06:11;;;;;;;;;;;21.30;55.30;;;;;;5095059;28;19920;-32
2023/05/27 12:08:36;;;;;;;;;;;21.30;54.80;;;;;;5094798;28;19912;-30
2023/05/27 12:11:02;;;;;;;;;;;21.40;54.80;;;;;;5094857;28;19959;-36
2023/05/27 12:13:29;;;;;;;;;;;21.50;54.40;;;;;;5094498;28;19958;-34
2023/05/27 12:15:54;;;;;;;;;;;21.60;54.40;;;;;;5094170;28;19908;-34
2023/05/27 12:18:20;;;;;;;;;;;21.70;54.40;;;;;;5094837;28;19909;-28
2023/05/27 12:20:46;;;;;;;;;;;21.80;54.20;;;;;;5076575;28;19934;-31
2023/05/27 12:23:11;;;;;;;;;;;21.80;53.90;;;;;;5094806;28;19920;-30
2023/05/27 12:25:37;;;;;;;;;;;21.90;53.70;;;;;;5094745;28;19951;-32
2023/05/27 12:28:02;;;;;;;;;;;22.00;53.70;;;;;;5094588;28;20364;-30
2023/05/27 12:30:28;;;;;;;;;;;22.00;53.60;;;;;;5094663;28;19908;-31
2023/05/27 12:32:54;;;;;;;;;;;22.10;53.50;;;;;;5094585;28;19931;-31
2023/05/27 12:35:20;;;;;;;;;;;22.20;53.50;;;;;;5076366;28;19916;-29
2023/05/27 12:37:45;;;;;;;;;;;22.30;53.50;;;;;;5094763;28;19978;-29
2023/05/27 12:40:14;;;;;;;;;;;22.30;53.00;;;;;;5094360;28;19919;-31
2023/05/27 12:42:42;;;;;;;;;;;22.40;52.70;;;;;;5094436;28;19997;-28
2023/05/27 12:45:09;;;;;;;;;;;22.50;52.20;;;;;;5094344;28;19999;-28
2023/05/27 12:47:34;;;;;;;;;;;22.50;52.40;;;;;;5094177;28;19908;-27
2023/05/27 12:50:00;;;;;;;;;;;22.50;52.30;;;;;;5094176;28;19908;-27
2023/05/27 12:52:25;;;;;;;;;;;22.60;52.10;;;;;;5094186;28;19978;-28
2023/05/27 12:54:51;;;;;;;;;;;22.70;51.10;;;;;;5075931;28;19978;-31
2023/05/27 12:57:16;;;;;;;;;;;22.80;51.80;;;;;;5094149;28;20337;-30
2023/05/27 12:59:42;;;;;;;;;;;22.90;51.80;;;;;;5094241;28;19918;-30
2023/05/27 13:02:07;;;;;;;;;;;23.00;51.70;;;;;;5093925;28;19908;-28
2023/05/27 13:04:33;;;;;;;;;;;23.00;51.70;;;;;;5093941;28;19934;-26
2023/05/27 13:06:59;;;;;;;;;;;23.10;50.90;;;;;;5093877;28;19916;-32
2023/05/27 13:09:24;;;;;;;;;;;23.10;51.00;;;;;;5093627;28;20007;-30
2023/05/27 13:11:50;;;;;;;;;;;23.10;51.20;;;;;;5093711;28;19908;-28
2023/05/27 13:14:15;;;;;;;;;;;23.20;51.40;;;;;;5093660;28;19908;-27
2023/05/27 13:16:41;;;;;;;;;;;23.30;51.20;;;;;;5093754;28;19912;-27
2023/05/27 13:19:06;;;;;;;;;;;23.40;51.20;;;;;;5093630;28;19914;-27
2023/05/27 13:21:32;;;;;;;;;;;23.40;51.00;;;;;;5093875;28;19952;-26
2023/05/27 13:23:57;;;;;;;;;;;23.60;50.90;;;;;;5093377;28;19924;-34
2023/05/27 13:26:23;;;;;;;;;;;23.60;51.00;;;;;;5093307;28;19953;-29
2023/05/27 13:28:49;;;;;;;;;;;23.70;51.00;;;;;;5093684;28;19912;-31
2023/05/27 13:31:15;;;;;;;;;;;23.80;50.70;;;;;;5093641;28;20050;-28
2023/05/27 13:33:42;;;;;;;;;;;23.90;50.60;;;;;;5093090;28;20542;-30
2023/05/27 13:36:07;;;;;;;;;;;23.90;50.50;;;;;;5093285;28;20382;-28
2023/05/27 13:38:33;;;;;;;;;;;24.00;50.40;;;;;;5093349;28;19912;-29
2023/05/27 13:41:02;;;;;;;;;;;24.10;50.10;;;;;;5093102;28;20010;-27
2023/05/27 13:43:27;;;;;;;;;;;24.10;50.60;;;;;;5093447;28;19908;-32
2023/05/27 13:45:53;;;;;;;;;;;24.20;50.00;;;;;;5093153;28;19998;-27
2023/05/27 13:48:18;;;;;;;;;;;24.20;49.90;;;;;;5093308;28;19916;-28
2023/05/27 13:50:44;;;;;;;;;;;24.30;49.90;;;;;;5093409;28;19914;-28
2023/05/27 13:53:09;;;;;;;;;;;24.40;49.50;;;;;;5092864;28;20364;-29
2023/05/27 13:55:35;;;;;;;;;;;24.40;49.40;;;;;;5093249;28;19951;-28
2023/05/27 13:58:00;;;;;;;;;;;24.40;49.20;;;;;;5092779;28;19919;-31
2023/05/27 14:00:26;;;;;;;;;;;24.50;49.10;;;;;;5074642;28;20002;-33
2023/05/27 14:02:53;;;;;;;;;;;24.60;48.90;;;;;;5093101;28;19912;-29
2023/05/27 14:05:20;;;;;;;;;;;24.50;48.90;;;;;;5092956;28;19939;-33
2023/05/27 14:07:46;;;;;;;;;;;24.60;49.00;;;;;;5093055;28;19908;-29
2023/05/27 14:10:12;;;;;;;;;;;24.70;48.90;;;;;;5092800;28;19919;-27
2023/05/27 14:12:38;;;;;;;;;;;24.80;49.00;;;;;;5092644;28;20439;-27